createdAt,value
2023-12-09T00:00:07.243Z,577.45
2023-12-09T00:00:17.259Z,577.56
2023-12-09T00:00:27.190Z,577.59
2023-12-09T00:00:37.160Z,577.49
2023-12-09T00:00:57.167Z,577.66
2023-12-09T00:01:07.326Z,577.76
2023-12-09T00:01:17.149Z,577.71
2023-12-09T00:01:27.225Z,577.72
2023-12-09T00:01:37.193Z,577.85
2023-12-09T00:01:47.165Z,577.77
2023-12-09T00:01:57.172Z,577.71
2023-12-09T00:02:07.155Z,577.72
2023-12-09T00:02:17.148Z,577.64
2023-12-09T00:02:27.316Z,577.65
2023-12-09T00:02:37.177Z,577.58
2023-12-09T00:02:47.158Z,577.38
2023-12-09T00:02:57.198Z,577.58
2023-12-09T00:03:07.212Z,577.51
2023-12-09T00:03:17.266Z,577.40
2023-12-09T00:03:37.274Z,577.35
2023-12-09T00:03:47.213Z,577.38
2023-12-09T00:03:57.318Z,577.42
2023-12-09T00:04:07.195Z,577.45
2023-12-09T00:04:17.177Z,577.40
2023-12-09T00:04:27.969Z,577.44
2023-12-09T00:04:37.267Z,577.64
2023-12-09T00:04:47.186Z,577.54
2023-12-09T00:05:07.195Z,577.74
2023-12-09T00:05:17.166Z,577.70
2023-12-09T00:05:27.163Z,577.69
2023-12-09T00:05:37.318Z,577.71
2023-12-09T00:05:47.211Z,577.79
2023-12-09T00:05:57.400Z,577.82
2023-12-09T00:06:07.324Z,577.93
2023-12-09T00:06:17.993Z,577.70
2023-12-09T00:06:27.282Z,577.82
2023-12-09T00:06:37.260Z,577.85
2023-12-09T00:06:57.327Z,577.85
2023-12-09T00:07:07.238Z,577.79
2023-12-09T00:07:17.231Z,577.55
2023-12-09T00:07:27.178Z,577.50
2023-12-09T00:07:37.934Z,577.72
2023-12-09T00:07:47.200Z,577.50
2023-12-09T00:07:57.232Z,577.66
2023-12-09T00:08:17.218Z,577.59
2023-12-09T00:08:27.220Z,577.62
2023-12-09T00:08:37.176Z,577.69
2023-12-09T00:08:47.188Z,577.71
2023-12-09T00:08:57.275Z,577.79
2023-12-09T00:09:07.235Z,577.79
2023-12-09T00:09:27.269Z,577.76
2023-12-09T00:09:37.262Z,577.87
2023-12-09T00:09:47.946Z,577.79
2023-12-09T00:09:57.231Z,577.76
2023-12-09T00:10:07.209Z,577.90
2023-12-09T00:10:17.178Z,577.84
2023-12-09T00:10:37.188Z,577.79
2023-12-09T00:10:47.192Z,577.84
2023-12-09T00:10:57.186Z,577.79
2023-12-09T00:11:07.210Z,577.74
2023-12-09T00:11:17.210Z,578.05
2023-12-09T00:11:27.202Z,577.80
2023-12-09T00:11:37.202Z,577.83
2023-12-09T00:11:47.203Z,577.83
2023-12-09T00:11:57.224Z,577.97
2023-12-09T00:12:17.284Z,578.05
2023-12-09T00:12:27.548Z,578.08
2023-12-09T00:12:37.231Z,577.99
2023-12-09T00:12:47.224Z,578.06
2023-12-09T00:12:57.219Z,578.04
2023-12-09T00:13:07.204Z,578.15
2023-12-09T00:13:24.974Z,578.28
2023-12-09T00:13:37.203Z,578.20
2023-12-09T00:13:47.209Z,578.17
2023-12-09T00:13:57.201Z,578.12
2023-12-09T00:14:07.202Z,578.11
2023-12-09T00:14:17.217Z,578.16
2023-12-09T00:14:27.225Z,578.21
2023-12-09T00:14:37.206Z,578.19
2023-12-09T00:14:47.230Z,578.17
2023-12-09T00:14:57.255Z,578.21
2023-12-09T00:15:07.269Z,578.11
2023-12-09T00:15:17.281Z,578.19
2023-12-09T00:15:27.260Z,578.17
2023-12-09T00:15:37.221Z,578.00
2023-12-09T00:15:57.216Z,577.92
2023-12-09T00:16:07.209Z,577.87
2023-12-09T00:16:17.218Z,577.78
2023-12-09T00:16:27.224Z,577.74
2023-12-09T00:16:37.216Z,577.82
2023-12-09T00:16:47.218Z,577.84
2023-12-09T00:16:57.229Z,577.73
2023-12-09T00:17:07.230Z,577.81
2023-12-09T00:17:17.229Z,577.88
2023-12-09T00:17:27.275Z,577.83
2023-12-09T00:17:37.264Z,577.87
2023-12-09T00:17:47.269Z,577.81
2023-12-09T00:17:57.291Z,577.84
2023-12-09T00:18:07.365Z,577.68
2023-12-09T00:18:17.319Z,577.71
2023-12-09T00:18:37.324Z,577.83
2023-12-09T00:18:47.353Z,578.01
2023-12-09T00:18:57.392Z,577.93
2023-12-09T00:19:07.308Z,578.15
2023-12-09T00:19:17.346Z,578.00
2023-12-09T00:19:27.292Z,577.95
2023-12-09T00:19:37.261Z,577.89
2023-12-09T00:19:47.289Z,577.93
2023-12-09T00:19:57.231Z,577.91
2023-12-09T00:20:17.258Z,577.81
2023-12-09T00:20:27.254Z,577.89
2023-12-09T00:20:37.243Z,577.99
2023-12-09T00:20:47.247Z,577.90
2023-12-09T00:20:57.276Z,577.92
2023-12-09T00:21:07.263Z,577.77
2023-12-09T00:21:17.320Z,577.89
2023-12-09T00:21:37.262Z,577.77
2023-12-09T00:21:47.262Z,577.83
2023-12-09T00:21:57.254Z,577.76
2023-12-09T00:22:07.245Z,577.81
2023-12-09T00:22:17.271Z,577.80
2023-12-09T00:22:27.666Z,577.94
2023-12-09T00:22:47.245Z,577.88
2023-12-09T00:22:57.264Z,577.85
2023-12-09T00:23:07.266Z,577.65
2023-12-09T00:23:17.246Z,577.63
2023-12-09T00:23:27.251Z,577.78
2023-12-09T00:23:47.068Z,577.67
2023-12-09T00:23:48.698Z,577.52
2023-12-09T00:24:07.258Z,577.48
2023-12-09T00:24:17.303Z,577.59
2023-12-09T00:24:27.312Z,577.54
2023-12-09T00:24:37.335Z,577.51
2023-12-09T00:24:47.269Z,577.65
2023-12-09T00:24:57.264Z,577.55
2023-12-09T00:25:07.259Z,577.54
2023-12-09T00:25:17.277Z,577.67
2023-12-09T00:25:27.255Z,577.68
2023-12-09T00:25:47.240Z,577.67
2023-12-09T00:25:57.261Z,577.73
2023-12-09T00:26:07.269Z,577.78
2023-12-09T00:26:17.270Z,577.90
2023-12-09T00:26:27.260Z,577.87
2023-12-09T00:26:37.267Z,577.76
2023-12-09T00:26:47.257Z,577.70
2023-12-09T00:26:57.294Z,577.65
2023-12-09T00:27:07.357Z,577.72
2023-12-09T00:27:17.314Z,577.72
2023-12-09T00:27:27.366Z,577.67
2023-12-09T00:27:37.297Z,577.62
2023-12-09T00:27:47.282Z,577.61
2023-12-09T00:27:57.284Z,577.58
2023-12-09T00:28:07.271Z,577.55
2023-12-09T00:28:17.269Z,577.47
2023-12-09T00:28:27.290Z,577.59
2023-12-09T00:28:47.276Z,577.43
2023-12-09T00:28:57.269Z,577.40
2023-12-09T00:29:07.304Z,577.33
2023-12-09T00:29:17.284Z,577.30
2023-12-09T00:29:27.277Z,577.16
2023-12-09T00:29:37.278Z,577.23
2023-12-09T00:29:47.292Z,577.19
2023-12-09T00:29:57.298Z,577.17
2023-12-09T00:30:07.407Z,577.33
2023-12-09T00:30:17.350Z,577.25
2023-12-09T00:30:27.308Z,577.29
2023-12-09T00:30:37.343Z,577.22
2023-12-09T00:30:47.297Z,577.23
2023-12-09T00:30:57.285Z,577.25
2023-12-09T00:31:07.288Z,577.25
2023-12-09T00:31:17.278Z,577.31
2023-12-09T00:31:27.292Z,577.21
2023-12-09T00:31:37.275Z,577.33
2023-12-09T00:31:57.318Z,577.26
2023-12-09T00:32:07.311Z,577.18
2023-12-09T00:32:17.324Z,577.16
2023-12-09T00:32:27.622Z,577.12
2023-12-09T00:32:37.411Z,577.12
2023-12-09T00:32:47.355Z,577.12
2023-12-09T00:32:57.392Z,577.06
2023-12-09T00:33:17.364Z,576.96
2023-12-09T00:33:27.370Z,576.99
2023-12-09T00:33:37.421Z,576.98
2023-12-09T00:33:47.437Z,577.01
2023-12-09T00:33:57.334Z,576.90
2023-12-09T00:34:07.372Z,576.89
2023-12-09T00:34:17.395Z,576.84
2023-12-09T00:34:27.433Z,576.78
2023-12-09T00:34:37.312Z,576.76
2023-12-09T00:34:47.314Z,576.89
2023-12-09T00:34:57.310Z,576.80
2023-12-09T00:35:07.311Z,576.79
2023-12-09T00:35:27.301Z,576.87
2023-12-09T00:35:37.300Z,576.91
2023-12-09T00:35:47.309Z,576.82
2023-12-09T00:35:57.359Z,576.92
2023-12-09T00:36:07.346Z,576.96
2023-12-09T00:36:17.351Z,576.89
2023-12-09T00:36:27.378Z,576.89
2023-12-09T00:36:37.353Z,576.82
2023-12-09T00:36:47.347Z,576.87
2023-12-09T00:36:57.317Z,576.83
2023-12-09T00:37:07.312Z,576.80
2023-12-09T00:37:17.317Z,576.84
2023-12-09T00:37:27.310Z,576.88
2023-12-09T00:37:37.313Z,576.59
2023-12-09T00:37:57.319Z,576.82
2023-12-09T00:38:07.320Z,576.64
2023-12-09T00:38:17.319Z,576.80
2023-12-09T00:38:27.326Z,576.73
2023-12-09T00:38:37.324Z,576.61
2023-12-09T00:38:47.330Z,576.69
2023-12-09T00:38:57.339Z,576.77
2023-12-09T00:39:07.402Z,576.63
2023-12-09T00:39:17.403Z,576.59
2023-12-09T00:39:27.345Z,576.70
2023-12-09T00:39:37.357Z,576.68
2023-12-09T00:39:47.386Z,576.53
2023-12-09T00:39:57.346Z,576.54
2023-12-09T00:40:07.323Z,576.53
2023-12-09T00:40:17.325Z,576.57
2023-12-09T00:40:27.323Z,576.53
2023-12-09T00:40:37.328Z,576.39
2023-12-09T00:40:57.332Z,576.35
2023-12-09T00:41:07.334Z,576.39
2023-12-09T00:41:17.333Z,576.34
2023-12-09T00:41:27.338Z,576.44
2023-12-09T00:41:37.336Z,576.33
2023-12-09T00:41:47.320Z,576.39
2023-12-09T00:41:57.349Z,576.40
2023-12-09T00:42:07.382Z,576.37
2023-12-09T00:42:17.362Z,576.33
2023-12-09T00:42:27.594Z,576.35
2023-12-09T00:42:47.373Z,576.38
2023-12-09T00:42:57.352Z,576.39
2023-12-09T00:43:07.371Z,576.49
2023-12-09T00:43:17.341Z,576.36
2023-12-09T00:43:27.336Z,576.32
2023-12-09T00:43:37.348Z,576.44
2023-12-09T00:43:47.345Z,576.30
2023-12-09T00:44:07.345Z,576.39
2023-12-09T00:44:17.356Z,576.30
2023-12-09T00:44:27.359Z,576.36
2023-12-09T00:44:37.364Z,576.32
2023-12-09T00:44:47.347Z,576.32
2023-12-09T00:44:57.394Z,576.34
2023-12-09T00:45:07.389Z,576.28
2023-12-09T00:45:17.382Z,576.53
2023-12-09T00:45:27.363Z,576.42
2023-12-09T00:45:47.350Z,576.61
2023-12-09T00:45:57.351Z,576.41
2023-12-09T00:46:07.365Z,576.42
2023-12-09T00:46:17.348Z,576.34
2023-12-09T00:46:27.358Z,576.46
2023-12-09T00:46:37.354Z,576.35
2023-12-09T00:46:47.358Z,576.40
2023-12-09T00:46:57.362Z,576.47
2023-12-09T00:47:07.369Z,576.42
2023-12-09T00:47:17.358Z,576.39
2023-12-09T00:47:37.442Z,576.38
2023-12-09T00:47:47.468Z,576.34
2023-12-09T00:47:57.568Z,576.32
2023-12-09T00:48:07.561Z,576.35
2023-12-09T00:48:17.528Z,576.30
2023-12-09T00:48:27.448Z,576.36
2023-12-09T00:48:37.452Z,576.28
2023-12-09T00:48:47.473Z,576.27
2023-12-09T00:49:07.455Z,576.26
2023-12-09T00:49:17.491Z,576.22
2023-12-09T00:49:27.509Z,576.25
2023-12-09T00:49:37.432Z,576.29
2023-12-09T00:49:47.431Z,576.14
2023-12-09T00:49:57.416Z,576.08
2023-12-09T00:50:07.490Z,576.11
2023-12-09T00:50:27.371Z,576.37
2023-12-09T00:50:37.372Z,576.40
2023-12-09T00:50:47.373Z,576.45
2023-12-09T00:50:57.421Z,576.23
2023-12-09T00:51:07.411Z,576.23
2023-12-09T00:51:17.403Z,576.36
2023-12-09T00:51:27.401Z,576.32
2023-12-09T00:51:37.429Z,576.19
2023-12-09T00:51:47.374Z,576.10
2023-12-09T00:51:57.376Z,576.30
2023-12-09T00:52:07.402Z,576.13
2023-12-09T00:52:17.376Z,576.21
2023-12-09T00:52:27.675Z,576.23
2023-12-09T00:52:37.387Z,576.25
2023-12-09T00:52:47.385Z,576.19
2023-12-09T00:52:57.379Z,576.16
2023-12-09T00:53:17.384Z,576.10
2023-12-09T00:53:27.385Z,576.00
2023-12-09T00:53:37.391Z,575.99
2023-12-09T00:53:47.425Z,575.98
2023-12-09T00:53:57.430Z,575.94
2023-12-09T00:54:07.411Z,575.74
2023-12-09T00:54:17.437Z,575.80
2023-12-09T00:54:27.433Z,575.77
2023-12-09T00:54:37.426Z,575.73
2023-12-09T00:54:57.400Z,575.86
2023-12-09T00:55:07.426Z,575.95
2023-12-09T00:55:17.419Z,576.08
2023-12-09T00:55:27.390Z,576.05
2023-12-09T00:55:37.394Z,576.07
2023-12-09T00:55:47.397Z,575.86
2023-12-09T00:55:57.394Z,575.84
2023-12-09T00:56:33.033Z,575.78
2023-12-09T00:56:34.318Z,575.88
2023-12-09T00:56:38.395Z,575.76
2023-12-09T00:56:47.416Z,575.85
2023-12-09T00:56:57.501Z,575.97
2023-12-09T00:57:07.445Z,575.84
2023-12-09T00:57:17.447Z,575.81
2023-12-09T00:57:37.466Z,575.84
2023-12-09T00:57:47.405Z,575.74
2023-12-09T00:57:57.402Z,575.82
2023-12-09T00:58:07.438Z,575.70
2023-12-09T00:58:17.407Z,575.89
2023-12-09T00:58:27.424Z,575.72
2023-12-09T00:58:37.396Z,575.78
2023-12-09T00:58:47.410Z,575.75
2023-12-09T00:58:57.417Z,575.74
2023-12-09T00:59:07.409Z,575.82
2023-12-09T00:59:17.408Z,575.73
2023-12-09T00:59:27.410Z,575.77
2023-12-09T00:59:37.408Z,575.66
2023-12-09T00:59:47.417Z,575.73
2023-12-09T00:59:57.474Z,575.68
2023-12-09T01:00:07.449Z,575.74
2023-12-09T01:00:17.455Z,575.70
2023-12-09T01:00:27.468Z,575.70
2023-12-09T01:00:37.460Z,575.61
2023-12-09T01:00:47.514Z,575.75
2023-12-09T01:01:07.447Z,575.69
2023-12-09T01:01:17.426Z,575.55
2023-12-09T01:01:27.441Z,575.58
2023-12-09T01:01:37.422Z,575.49
2023-12-09T01:01:47.424Z,575.50
2023-12-09T01:01:57.434Z,575.51
2023-12-09T01:02:17.430Z,575.36
2023-12-09T01:02:27.911Z,575.30
2023-12-09T01:02:37.444Z,575.32
2023-12-09T01:02:47.454Z,575.43
2023-12-09T01:02:57.509Z,575.47
2023-12-09T01:03:07.485Z,575.46
2023-12-09T01:03:17.521Z,575.42
2023-12-09T01:03:27.485Z,575.40
2023-12-09T01:03:37.584Z,575.29
2023-12-09T01:03:57.577Z,575.47
2023-12-09T01:04:07.505Z,575.45
2023-12-09T01:04:17.510Z,575.55
2023-12-09T01:04:27.496Z,575.41
2023-12-09T01:04:37.467Z,575.53
2023-12-09T01:04:47.469Z,575.54
2023-12-09T01:04:57.467Z,575.72
2023-12-09T01:05:07.459Z,575.77
2023-12-09T01:05:17.454Z,575.84
2023-12-09T01:05:27.433Z,575.74
2023-12-09T01:05:47.443Z,575.48
2023-12-09T01:05:57.512Z,575.47
2023-12-09T01:06:07.472Z,575.38
2023-12-09T01:06:17.552Z,575.47
2023-12-09T01:06:27.516Z,575.56
2023-12-09T01:06:37.490Z,575.31
2023-12-09T01:06:47.449Z,575.34
2023-12-09T01:06:57.446Z,575.32
2023-12-09T01:07:07.432Z,575.47
2023-12-09T01:07:17.445Z,575.58
2023-12-09T01:07:27.493Z,575.21
2023-12-09T01:07:37.428Z,575.32
2023-12-09T01:07:47.453Z,575.26
2023-12-09T01:07:57.450Z,575.26
2023-12-09T01:08:07.457Z,575.19
2023-12-09T01:08:17.460Z,575.19
2023-12-09T01:08:27.452Z,575.20
2023-12-09T01:08:37.458Z,575.22
2023-12-09T01:08:47.449Z,575.19
2023-12-09T01:08:57.513Z,575.17
2023-12-09T01:09:17.460Z,575.27
2023-12-09T01:09:27.491Z,575.24
2023-12-09T01:09:37.536Z,575.20
2023-12-09T01:09:47.461Z,575.22
2023-12-09T01:09:57.496Z,575.27
2023-12-09T01:10:07.462Z,575.24
2023-12-09T01:10:17.460Z,575.17
2023-12-09T01:10:27.469Z,575.18
2023-12-09T01:10:37.466Z,575.31
2023-12-09T01:10:47.469Z,575.20
2023-12-09T01:11:07.478Z,575.15
2023-12-09T01:11:17.488Z,575.14
2023-12-09T01:11:27.465Z,575.11
2023-12-09T01:11:37.476Z,575.07
2023-12-09T01:11:47.474Z,575.05
2023-12-09T01:11:57.506Z,574.95
2023-12-09T01:12:07.511Z,574.90
2023-12-09T01:12:17.502Z,575.02
2023-12-09T01:12:27.655Z,574.95
2023-12-09T01:12:47.538Z,574.91
2023-12-09T01:12:57.478Z,574.90
2023-12-09T01:13:07.474Z,574.94
2023-12-09T01:13:17.479Z,574.95
2023-12-09T01:13:27.545Z,574.81
2023-12-09T01:13:37.482Z,574.89
2023-12-09T01:13:47.484Z,575.00
2023-12-09T01:13:57.483Z,574.69
2023-12-09T01:14:07.478Z,574.83
2023-12-09T01:14:17.488Z,574.93
2023-12-09T01:14:27.590Z,574.85
2023-12-09T01:14:37.497Z,574.75
2023-12-09T01:14:57.484Z,574.83
2023-12-09T01:15:07.524Z,574.80
2023-12-09T01:15:17.533Z,574.87
2023-12-09T01:15:27.522Z,574.83
2023-12-09T01:15:37.504Z,574.89
2023-12-09T01:15:47.491Z,574.85
2023-12-09T01:15:57.490Z,574.82
2023-12-09T01:16:07.490Z,574.68
2023-12-09T01:16:17.499Z,574.79
2023-12-09T01:16:27.571Z,574.78
2023-12-09T01:16:37.487Z,574.76
2023-12-09T01:16:47.506Z,574.72
2023-12-09T01:16:57.501Z,574.64
2023-12-09T01:17:07.494Z,574.49
2023-12-09T01:17:17.491Z,574.56
2023-12-09T01:17:28.477Z,574.61
2023-12-09T01:17:37.532Z,574.45
2023-12-09T01:17:47.541Z,574.62
2023-12-09T01:17:57.579Z,574.57
2023-12-09T01:18:07.594Z,574.58
2023-12-09T01:18:17.613Z,574.54
2023-12-09T01:18:37.609Z,574.50
2023-12-09T01:18:47.532Z,574.51
2023-12-09T01:18:57.559Z,574.61
2023-12-09T01:19:07.539Z,574.67
2023-12-09T01:19:17.542Z,574.65
2023-12-09T01:19:27.658Z,574.72
2023-12-09T01:19:37.547Z,574.56
2023-12-09T01:19:47.556Z,574.72
2023-12-09T01:19:57.543Z,574.75
2023-12-09T01:20:17.516Z,574.65
2023-12-09T01:20:27.597Z,574.80
2023-12-09T01:20:37.532Z,574.67
2023-12-09T01:20:47.511Z,574.71
2023-12-09T01:20:57.551Z,574.73
2023-12-09T01:21:07.544Z,574.80
2023-12-09T01:21:17.525Z,574.87
2023-12-09T01:21:27.659Z,574.80
2023-12-09T01:21:47.515Z,574.93
2023-12-09T01:21:57.521Z,574.93
2023-12-09T01:22:07.513Z,574.88
2023-12-09T01:22:17.538Z,574.99
2023-12-09T01:22:27.813Z,574.87
2023-12-09T01:22:37.518Z,574.90
2023-12-09T01:22:47.551Z,575.02
2023-12-09T01:22:57.522Z,574.73
2023-12-09T01:23:07.524Z,574.64
2023-12-09T01:23:27.603Z,574.62
2023-12-09T01:23:37.544Z,574.68
2023-12-09T01:23:47.519Z,574.68
2023-12-09T01:23:57.545Z,574.66
2023-12-09T01:24:07.555Z,574.46
2023-12-09T01:24:17.580Z,574.54
2023-12-09T01:24:27.595Z,574.52
2023-12-09T01:24:37.531Z,574.43
2023-12-09T01:24:47.537Z,574.29
2023-12-09T01:24:57.541Z,574.37
2023-12-09T01:25:07.527Z,574.42
2023-12-09T01:25:17.539Z,574.33
2023-12-09T01:25:27.600Z,574.34
2023-12-09T01:25:37.536Z,574.40
2023-12-09T01:25:47.532Z,574.30
2023-12-09T01:25:57.536Z,574.39
2023-12-09T01:26:07.538Z,574.31
2023-12-09T01:26:17.541Z,574.35
2023-12-09T01:26:27.558Z,574.30
2023-12-09T01:26:37.548Z,574.34
2023-12-09T01:26:47.554Z,574.36
2023-12-09T01:26:57.565Z,574.38
2023-12-09T01:27:07.581Z,574.36
2023-12-09T01:27:17.639Z,574.44
2023-12-09T01:27:27.709Z,574.24
2023-12-09T01:27:37.543Z,574.41
2023-12-09T01:27:47.550Z,574.30
2023-12-09T01:27:57.548Z,574.31
2023-12-09T01:28:07.555Z,574.39
2023-12-09T01:28:17.554Z,574.38
2023-12-09T01:28:27.563Z,574.24
2023-12-09T01:28:37.552Z,574.20
2023-12-09T01:28:47.546Z,574.20
2023-12-09T01:28:57.559Z,574.21
2023-12-09T01:29:07.577Z,574.33
2023-12-09T01:29:17.557Z,574.27
2023-12-09T01:29:27.556Z,574.22
2023-12-09T01:29:37.550Z,574.16
2023-12-09T01:29:47.554Z,574.21
2023-12-09T01:29:57.577Z,574.18
2023-12-09T01:30:07.602Z,574.19
2023-12-09T01:30:27.574Z,574.12
2023-12-09T01:30:37.647Z,574.27
2023-12-09T01:30:47.572Z,574.21
2023-12-09T01:30:57.570Z,574.23
2023-12-09T01:31:07.590Z,574.13
2023-12-09T01:31:17.555Z,574.20
2023-12-09T01:31:27.559Z,574.18
2023-12-09T01:31:37.566Z,574.25
2023-12-09T01:31:47.558Z,574.09
2023-12-09T01:31:57.550Z,574.09
2023-12-09T01:32:17.599Z,574.11
2023-12-09T01:32:27.948Z,574.25
2023-12-09T01:32:37.589Z,574.31
2023-12-09T01:32:47.621Z,574.39
2023-12-09T01:32:57.694Z,574.21
2023-12-09T01:33:07.777Z,574.14
2023-12-09T01:33:17.650Z,574.23
2023-12-09T01:33:27.660Z,574.15
2023-12-09T01:33:37.741Z,574.21
2023-12-09T01:33:47.733Z,574.24
2023-12-09T01:33:57.736Z,574.22
2023-12-09T01:34:07.672Z,574.24
2023-12-09T01:34:17.723Z,574.32
2023-12-09T01:34:27.682Z,574.36
2023-12-09T01:34:47.634Z,574.29
2023-12-09T01:34:57.606Z,574.34
2023-12-09T01:35:07.581Z,574.24
2023-12-09T01:35:17.581Z,574.24
2023-12-09T01:35:27.585Z,574.28
2023-12-09T01:35:37.576Z,574.28
2023-12-09T01:35:47.584Z,574.39
2023-12-09T01:36:07.667Z,574.23
2023-12-09T01:36:17.609Z,574.18
2023-12-09T01:36:27.588Z,574.23
2023-12-09T01:36:37.580Z,574.11
2023-12-09T01:36:47.583Z,574.17
2023-12-09T01:36:57.605Z,574.18
2023-12-09T01:37:07.587Z,574.21
2023-12-09T01:37:17.590Z,574.26
2023-12-09T01:37:27.586Z,574.45
2023-12-09T01:37:37.588Z,574.36
2023-12-09T01:37:47.587Z,574.34
2023-12-09T01:38:07.599Z,574.26
2023-12-09T01:38:17.592Z,574.14
2023-12-09T01:38:27.605Z,574.14
2023-12-09T01:38:37.599Z,574.08
2023-12-09T01:38:47.592Z,574.10
2023-12-09T01:38:57.620Z,574.05
2023-12-09T01:39:07.624Z,574.11
2023-12-09T01:39:17.631Z,574.02
2023-12-09T01:39:27.622Z,573.99
2023-12-09T01:39:37.626Z,574.06
2023-12-09T01:39:47.600Z,574.06
2023-12-09T01:39:57.608Z,574.01
2023-12-09T01:40:07.617Z,573.96
2023-12-09T01:40:27.603Z,573.95
2023-12-09T01:40:37.616Z,573.93
2023-12-09T01:40:47.607Z,574.08
2023-12-09T01:40:57.628Z,574.00
2023-12-09T01:41:07.614Z,573.89
2023-12-09T01:41:17.605Z,574.11
2023-12-09T01:41:27.609Z,574.00
2023-12-09T01:41:37.623Z,574.03
2023-12-09T01:41:47.603Z,574.02
2023-12-09T01:41:57.627Z,574.11
2023-12-09T01:42:07.654Z,574.04
2023-12-09T01:42:17.649Z,574.03
2023-12-09T01:42:27.885Z,574.02
2023-12-09T01:42:37.665Z,573.94
2023-12-09T01:42:47.608Z,574.02
2023-12-09T01:42:57.613Z,574.02
2023-12-09T01:43:17.617Z,574.03
2023-12-09T01:43:27.627Z,574.05
2023-12-09T01:43:37.629Z,574.10
2023-12-09T01:43:47.622Z,573.96
2023-12-09T01:43:57.621Z,574.13
2023-12-09T01:44:07.614Z,574.18
2023-12-09T01:44:17.639Z,574.05
2023-12-09T01:44:27.623Z,573.76
2023-12-09T01:44:37.626Z,573.95
2023-12-09T01:44:47.636Z,573.77
2023-12-09T01:44:57.644Z,573.74
2023-12-09T01:45:07.660Z,573.68
2023-12-09T01:45:17.724Z,573.76
2023-12-09T01:45:27.647Z,573.74
2023-12-09T01:45:37.685Z,573.64
2023-12-09T01:45:47.633Z,573.61
2023-12-09T01:45:57.630Z,573.66
2023-12-09T01:46:17.633Z,573.63
2023-12-09T01:46:27.634Z,573.71
2023-12-09T01:46:37.635Z,573.66
2023-12-09T01:46:47.639Z,573.60
2023-12-09T01:46:57.662Z,573.50
2023-12-09T01:47:07.636Z,573.53
2023-12-09T01:47:17.634Z,573.41
2023-12-09T01:47:27.634Z,573.46
2023-12-09T01:47:37.677Z,573.33
2023-12-09T01:47:47.636Z,573.32
2023-12-09T01:47:57.694Z,573.40
2023-12-09T01:48:07.758Z,573.50
2023-12-09T01:48:18.768Z,573.49
2023-12-09T01:48:27.842Z,573.59
2023-12-09T01:48:47.775Z,573.60
2023-12-09T01:48:57.830Z,573.46
2023-12-09T01:49:07.874Z,573.54
2023-12-09T01:49:17.806Z,573.48
2023-12-09T01:49:27.836Z,573.66
2023-12-09T01:49:37.800Z,573.44
2023-12-09T01:49:47.742Z,573.27
2023-12-09T01:49:57.901Z,573.33
2023-12-09T01:50:07.780Z,573.17
2023-12-09T01:50:17.760Z,573.21
2023-12-09T01:50:37.740Z,573.42
2023-12-09T01:50:47.650Z,573.54
2023-12-09T01:50:57.700Z,573.74
2023-12-09T01:51:07.676Z,573.77
2023-12-09T01:51:17.690Z,573.69
2023-12-09T01:51:27.724Z,573.65
2023-12-09T01:51:37.656Z,573.46
2023-12-09T01:51:47.656Z,573.57
2023-12-09T01:51:57.664Z,573.50
2023-12-09T01:52:07.660Z,573.36
2023-12-09T01:52:17.662Z,573.37
2023-12-09T01:52:27.977Z,573.38
2023-12-09T01:52:37.659Z,573.21
2023-12-09T01:52:47.659Z,573.09
2023-12-09T01:52:57.674Z,572.99
2023-12-09T01:53:07.677Z,572.94
2023-12-09T01:53:27.667Z,573.30
2023-12-09T01:53:37.691Z,573.16
2023-12-09T01:53:47.662Z,573.48
2023-12-09T01:53:57.708Z,573.38
2023-12-09T01:54:07.703Z,573.37
2023-12-09T01:54:17.703Z,573.36
2023-12-09T01:54:27.676Z,573.44
2023-12-09T01:54:37.675Z,573.57
2023-12-09T01:54:47.688Z,573.27
2023-12-09T01:54:57.679Z,573.63
2023-12-09T01:55:07.685Z,573.46
2023-12-09T01:55:17.702Z,573.54
2023-12-09T01:55:27.674Z,573.47
2023-12-09T01:55:37.680Z,573.60
2023-12-09T01:55:47.678Z,573.52
2023-12-09T01:56:07.672Z,573.64
2023-12-09T01:56:17.687Z,573.65
2023-12-09T01:56:27.683Z,573.54
2023-12-09T01:56:37.680Z,573.59
2023-12-09T01:56:47.685Z,573.57
2023-12-09T01:56:57.751Z,573.61
2023-12-09T01:57:07.725Z,573.62
2023-12-09T01:57:17.708Z,573.60
2023-12-09T01:57:27.768Z,573.72
2023-12-09T01:57:37.685Z,573.67
2023-12-09T01:57:47.703Z,573.60
2023-12-09T01:57:57.683Z,573.58
2023-12-09T01:58:07.695Z,573.51
2023-12-09T01:58:17.676Z,573.60
2023-12-09T01:58:27.718Z,573.52
2023-12-09T01:58:47.710Z,573.56
2023-12-09T01:58:57.700Z,573.53
2023-12-09T01:59:07.687Z,573.51
2023-12-09T01:59:17.708Z,573.58
2023-12-09T01:59:27.702Z,573.67
2023-12-09T01:59:37.692Z,573.68
2023-12-09T01:59:47.709Z,573.70
2023-12-09T01:59:57.779Z,573.73
2023-12-09T02:00:07.727Z,573.70
2023-12-09T02:00:20.085Z,573.68
2023-12-09T02:00:27.751Z,573.66
2023-12-09T02:00:37.766Z,573.73
2023-12-09T02:00:47.771Z,573.82
2023-12-09T02:00:57.726Z,573.70
2023-12-09T02:01:07.739Z,573.70
2023-12-09T02:01:17.704Z,573.70
2023-12-09T02:01:27.703Z,573.89
2023-12-09T02:01:37.706Z,573.90
2023-12-09T02:01:47.713Z,573.84
2023-12-09T02:01:57.703Z,573.86
2023-12-09T02:02:07.756Z,573.98
2023-12-09T02:02:17.711Z,573.87
2023-12-09T02:02:28.003Z,573.83
2023-12-09T02:02:37.758Z,573.83
2023-12-09T02:02:47.798Z,573.79
2023-12-09T02:02:57.816Z,573.71
2023-12-09T02:03:07.901Z,573.73
2023-12-09T02:03:17.787Z,573.65
2023-12-09T02:03:27.808Z,573.63
2023-12-09T02:03:37.810Z,573.67
2023-12-09T02:03:47.823Z,573.52
2023-12-09T02:03:57.753Z,573.61
2023-12-09T02:04:07.747Z,573.45
2023-12-09T02:04:27.742Z,573.37
2023-12-09T02:04:37.750Z,573.50
2023-12-09T02:04:47.769Z,573.52
2023-12-09T02:04:57.720Z,573.35
2023-12-09T02:05:07.753Z,573.40
2023-12-09T02:05:17.852Z,573.36
2023-12-09T02:05:28.501Z,573.38
2023-12-09T02:05:37.757Z,573.57
2023-12-09T02:05:47.734Z,573.39
2023-12-09T02:05:57.764Z,573.44
2023-12-09T02:06:07.775Z,573.29
2023-12-09T02:06:27.807Z,573.40
2023-12-09T02:06:37.735Z,573.33
2023-12-09T02:06:47.730Z,573.41
2023-12-09T02:06:57.733Z,573.48
2023-12-09T02:07:07.766Z,573.63
2023-12-09T02:07:17.746Z,573.59
2023-12-09T02:07:27.744Z,573.72
2023-12-09T02:07:37.739Z,573.63
2023-12-09T02:07:47.741Z,573.72
2023-12-09T02:07:57.730Z,573.62
2023-12-09T02:08:07.735Z,573.53
2023-12-09T02:08:17.736Z,573.55
2023-12-09T02:08:27.757Z,573.43
2023-12-09T02:08:37.740Z,573.51
2023-12-09T02:08:47.740Z,573.49
2023-12-09T02:08:57.773Z,573.45
2023-12-09T02:09:07.760Z,573.53
2023-12-09T02:09:17.759Z,573.48
2023-12-09T02:09:27.822Z,573.52
2023-12-09T02:09:37.747Z,573.46
2023-12-09T02:09:47.738Z,573.55
2023-12-09T02:09:57.739Z,573.54
2023-12-09T02:10:07.753Z,573.60
2023-12-09T02:10:17.793Z,573.60
2023-12-09T02:10:27.736Z,573.63
2023-12-09T02:10:37.744Z,573.63
2023-12-09T02:10:47.750Z,573.70
2023-12-09T02:10:57.747Z,573.59
2023-12-09T02:11:07.745Z,573.63
2023-12-09T02:11:27.744Z,573.53
2023-12-09T02:11:37.745Z,573.47
2023-12-09T02:11:47.744Z,573.54
2023-12-09T02:11:57.767Z,573.51
2023-12-09T02:12:07.767Z,573.54
2023-12-09T02:12:17.763Z,573.45
2023-12-09T02:12:28.047Z,573.51
2023-12-09T02:12:37.958Z,573.49
2023-12-09T02:12:47.755Z,573.51
2023-12-09T02:12:57.749Z,573.56
2023-12-09T02:13:17.755Z,573.49
2023-12-09T02:13:27.760Z,573.45
2023-12-09T02:13:37.758Z,573.44
2023-12-09T02:13:47.755Z,573.38
2023-12-09T02:13:57.756Z,573.42
2023-12-09T02:14:07.773Z,573.34
2023-12-09T02:14:17.770Z,573.38
2023-12-09T02:14:27.766Z,573.40
2023-12-09T02:14:37.775Z,573.42
2023-12-09T02:14:47.786Z,573.47
2023-12-09T02:14:57.798Z,573.41